Argyle, Iowa
Current Conditions -  °F | °C
As of 12:15 PM on Thursday 29 Jan 2015 (Local Time) from KEOK Reporting Station
Overcast Overcast  
Wind Chill: 27°   Ceiling: 1800
Heat Index: 37°   Visibility: 10mi
Dew Point: 32°   Wind: 20mph
Humidity: 81%   Direction: 320°NW
Pressure: 30.17"   Gusts: 31mph
Location:  40.53°N, 91.57°W
Report Text: KEOK 291815Z AUTO 32017G27KT 10SM OVC018 03/M00 A3017 RMK AO2
Loading
Personal Weather Stations






























Interactive Weather Map New forecast layout! Learn more

10-Day Weather Forecast

Advertisements
Track Severe Weather on mobile